createdAt,value
2018-02-05T00:03:04.038Z,23.10
2018-02-05T00:07:48.278Z,19.40
2018-02-05T00:12:31.618Z,20.47
2018-02-05T00:17:15.735Z,19.07
2018-02-05T00:21:59.045Z,21.33
2018-02-05T00:26:42.446Z,19.83
2018-02-05T00:31:26.600Z,18.30
2018-02-05T00:36:10.047Z,18.27
2018-02-05T00:40:53.418Z,19.90
2018-02-05T00:45:37.505Z,19.03
2018-02-05T00:50:20.884Z,16.00
2018-02-05T00:55:04.225Z,19.37
2018-02-05T00:59:47.582Z,17.17
2018-02-05T01:04:30.890Z,19.07
2018-02-05T01:09:14.230Z,18.43
2018-02-05T01:13:57.580Z,21.33
2018-02-05T01:18:40.963Z,18.93
2018-02-05T01:23:25.014Z,18.23
2018-02-05T01:28:09.127Z,19.77
2018-02-05T01:32:52.450Z,20.33
2018-02-05T01:37:35.774Z,16.53
2018-02-05T01:42:19.106Z,20.93
2018-02-05T01:47:02.407Z,18.20
2018-02-05T01:51:45.752Z,21.20
2018-02-05T01:56:29.129Z,19.73
2018-02-05T02:01:12.449Z,18.57
2018-02-05T02:05:56.188Z,19.53
2018-02-05T02:10:39.515Z,21.37
2018-02-05T02:15:23.598Z,17.97
2018-02-05T02:20:06.886Z,19.63
2018-02-05T02:24:50.214Z,19.97
2018-02-05T02:29:33.809Z,19.03
2018-02-05T02:34:17.094Z,18.07
2018-02-05T02:39:00.419Z,19.40
2018-02-05T02:43:43.770Z,24.87
2018-02-05T02:48:27.110Z,22.27
2018-02-05T02:53:10.470Z,22.17
2018-02-05T02:57:53.790Z,23.43
2018-02-05T03:02:37.164Z,22.33
2018-02-05T03:07:20.569Z,23.17
2018-02-05T03:12:04.814Z,23.60
2018-02-05T03:16:48.907Z,26.50
2018-02-05T03:21:32.231Z,24.90
2018-02-05T03:26:15.587Z,23.43
2018-02-05T03:30:59.239Z,19.40
2018-02-05T03:35:42.585Z,25.30
2018-02-05T03:40:25.927Z,24.63
2018-02-05T03:45:09.253Z,28.67
2018-02-05T03:49:52.580Z,23.33
2018-02-05T03:54:35.919Z,27.10
2018-02-05T03:59:19.230Z,30.57
2018-02-05T04:04:03.337Z,28.83
2018-02-05T04:08:46.695Z,23.60
2018-02-05T04:13:30.034Z,32.00
2018-02-05T04:18:13.360Z,32.47
2018-02-05T04:22:56.683Z,34.87
2018-02-05T04:27:40.040Z,31.63
2018-02-05T04:32:23.853Z,33.73
2018-02-05T04:37:07.940Z,33.40
2018-02-05T04:41:51.605Z,34.60
2018-02-05T04:46:34.886Z,36.23
2018-02-05T04:51:18.997Z,32.73
2018-02-05T04:56:02.360Z,36.00
2018-02-05T05:00:45.654Z,34.60
2018-02-05T05:05:29.021Z,32.97
2018-02-05T05:10:12.366Z,35.63
2018-02-05T05:14:55.778Z,39.87
2018-02-05T05:19:39.129Z,42.60
2018-02-05T05:24:22.451Z,43.87
2018-02-05T05:29:05.811Z,58.97
2018-02-05T05:33:49.190Z,45.83
2018-02-05T05:38:32.526Z,44.70
2018-02-05T05:43:15.844Z,52.80
2018-02-05T05:47:59.138Z,57.80
2018-02-05T05:52:42.546Z,58.07
2018-02-05T05:57:25.863Z,57.27
2018-02-05T06:02:09.195Z,63.47
2018-02-05T06:06:52.549Z,91.57
2018-02-05T06:11:36.792Z,43.67
2018-02-05T06:16:20.181Z,75.13
2018-02-05T06:21:03.514Z,91.63
2018-02-05T06:25:47.778Z,93.53
2018-02-05T06:30:32.518Z,54.97
2018-02-05T06:35:15.911Z,82.53
2018-02-05T06:39:59.244Z,103.57
2018-02-05T06:44:43.335Z,52.10
2018-02-05T06:49:27.035Z,51.37
2018-02-05T06:54:22.050Z,66.07
2018-02-05T06:59:05.405Z,76.97
2018-02-05T07:03:49.566Z,55.73
2018-02-05T07:08:33.678Z,50.80
2018-02-05T07:13:17.022Z,57.33
2018-02-05T07:18:00.456Z,58.03
2018-02-05T07:22:43.830Z,57.30
2018-02-05T07:27:27.208Z,50.43
2018-02-05T07:32:10.628Z,53.30
2018-02-05T07:36:53.991Z,51.17
2018-02-05T07:41:37.393Z,48.83
2018-02-05T07:46:20.715Z,47.80
2018-02-05T07:51:04.390Z,55.50
2018-02-05T07:55:47.714Z,45.10
2018-02-05T08:00:31.025Z,44.60
2018-02-05T08:05:14.363Z,48.23
2018-02-05T08:09:57.716Z,51.20
2018-02-05T08:14:41.125Z,43.03
2018-02-05T08:19:24.432Z,42.70
2018-02-05T08:24:07.774Z,42.17
2018-02-05T08:28:51.102Z,41.73
2018-02-05T08:33:34.467Z,46.10
2018-02-05T08:38:18.592Z,43.30
2018-02-05T08:43:01.926Z,45.67
2018-02-05T08:47:45.324Z,43.33
2018-02-05T08:52:29.435Z,48.37
2018-02-05T08:57:12.755Z,52.60
2018-02-05T09:01:56.078Z,47.10
2018-02-05T09:06:39.443Z,46.83
2018-02-05T09:11:22.772Z,52.37
2018-02-05T09:16:06.125Z,53.03
2018-02-05T09:20:49.478Z,45.37
2018-02-05T09:25:32.828Z,42.43
2018-02-05T09:30:16.182Z,39.57
2018-02-05T09:34:59.536Z,43.40
2018-02-05T09:39:43.619Z,39.83
2018-02-05T09:44:27.000Z,37.53
2018-02-05T09:49:10.327Z,27.83
2018-02-05T09:53:54.534Z,28.57
2018-02-05T09:58:37.884Z,31.23
2018-02-05T10:03:22.102Z,32.60
2018-02-05T10:08:05.479Z,33.43
2018-02-05T10:12:48.817Z,29.83
2018-02-05T10:17:32.947Z,28.07
2018-02-05T10:22:16.291Z,26.03
2018-02-05T10:26:59.640Z,27.00
2018-02-05T10:31:43.007Z,32.07
2018-02-05T10:36:26.653Z,26.30
2018-02-05T10:41:10.014Z,34.27
2018-02-05T10:45:53.343Z,34.77
2018-02-05T10:50:36.682Z,30.73
2018-02-05T10:55:20.020Z,32.23
2018-02-05T11:00:03.954Z,28.10
2018-02-05T11:04:48.096Z,32.70
2018-02-05T11:09:31.458Z,30.30
2018-02-05T11:14:15.538Z,32.87
2018-02-05T11:18:58.863Z,27.23
2018-02-05T11:23:42.257Z,29.37
2018-02-05T11:28:25.593Z,28.53
2018-02-05T11:33:08.929Z,32.37
2018-02-05T11:37:52.340Z,30.87
2018-02-05T11:42:35.731Z,34.43
2018-02-05T11:47:19.096Z,29.50
2018-02-05T11:52:03.209Z,30.90
2018-02-05T11:56:46.565Z,38.03
2018-02-05T12:01:30.030Z,32.23
2018-02-05T12:06:13.360Z,29.73
2018-02-05T12:10:56.748Z,27.83
2018-02-05T12:15:40.070Z,29.93
2018-02-05T12:20:24.497Z,24.97
2018-02-05T12:25:07.882Z,20.87
2018-02-05T12:29:52.013Z,17.47
2018-02-05T12:34:35.370Z,22.07
2018-02-05T12:39:18.732Z,24.40
2018-02-05T12:44:02.891Z,20.47
2018-02-05T12:48:46.243Z,20.20
2018-02-05T12:53:29.589Z,19.93
2018-02-05T12:58:12.962Z,17.00
2018-02-05T13:08:18.837Z,16.47
2018-02-05T13:13:02.172Z,13.03
2018-02-05T13:17:45.564Z,14.60
2018-02-05T13:22:28.997Z,13.17
2018-02-05T13:27:12.392Z,12.53
2018-02-05T13:31:55.777Z,12.37
2018-02-05T13:36:39.115Z,12.00
2018-02-05T13:52:00.233Z,14.43
2018-02-05T13:56:44.351Z,15.90
2018-02-05T14:01:27.695Z,14.77
2018-02-05T14:06:11.101Z,17.63
2018-02-05T14:16:33.003Z,14.93
2018-02-05T14:21:16.442Z,15.60
2018-02-05T14:26:11.810Z,13.70
2018-02-05T14:30:55.964Z,13.53
2018-02-05T14:35:40.103Z,15.73
2018-02-05T14:40:23.462Z,15.63
2018-02-05T14:45:07.016Z,11.80
2018-02-05T14:54:59.548Z,11.30
2018-02-05T14:59:42.950Z,12.47
2018-02-05T15:04:26.309Z,11.00
2018-02-05T15:09:09.687Z,11.60
2018-02-05T15:13:53.113Z,12.63
2018-02-05T15:18:36.534Z,11.47
2018-02-05T15:23:19.907Z,11.47
2018-02-05T15:33:01.611Z,11.20
2018-02-05T15:37:45.065Z,10.70
2018-02-05T15:47:31.664Z,9.63
2018-02-05T15:52:15.817Z,9.97
2018-02-05T15:57:29.833Z,11.60
2018-02-05T16:02:13.335Z,14.70
2018-02-05T16:06:57.457Z,12.37
2018-02-05T16:11:40.789Z,13.67
2018-02-05T16:16:24.130Z,15.47
2018-02-05T16:26:16.514Z,13.47
2018-02-05T16:30:59.871Z,13.07
2018-02-05T16:35:43.483Z,11.90
2018-02-05T16:40:26.799Z,14.53
2018-02-05T16:45:10.163Z,13.40
2018-02-05T16:49:56.928Z,14.37
2018-02-05T16:54:41.067Z,14.83
2018-02-05T16:59:24.548Z,15.80
2018-02-05T17:04:08.637Z,20.47
2018-02-05T17:08:52.239Z,19.60
2018-02-05T17:13:36.378Z,17.17
2018-02-05T17:18:19.741Z,15.73
2018-02-05T17:23:04.469Z,11.93
2018-02-05T17:27:47.805Z,17.63
2018-02-05T17:32:31.214Z,21.40
2018-02-05T17:37:14.856Z,16.37
2018-02-05T17:41:59.011Z,16.73
2018-02-05T17:46:43.161Z,20.80
2018-02-05T17:51:26.540Z,18.80
2018-02-05T17:56:09.915Z,17.17
2018-02-05T18:00:53.257Z,14.53
2018-02-05T18:05:37.064Z,17.30
2018-02-05T18:10:21.319Z,15.37
2018-02-05T18:15:04.908Z,17.63
2018-02-05T18:19:49.016Z,13.50
2018-02-05T18:24:32.391Z,14.40
2018-02-05T18:29:15.745Z,13.63
2018-02-05T18:33:59.344Z,13.20
2018-02-05T18:38:43.437Z,10.33
2018-02-05T18:43:26.733Z,9.47
2018-02-05T18:48:12.875Z,9.83
2018-02-05T18:52:58.107Z,7.33
2018-02-05T18:57:41.941Z,9.83
2018-02-05T19:02:25.382Z,9.93
2018-02-05T19:07:09.016Z,9.07
2018-02-05T19:11:52.883Z,9.03
2018-02-05T19:16:36.199Z,11.80
2018-02-05T19:21:19.525Z,13.63
2018-02-05T19:26:03.110Z,10.10
2018-02-05T19:30:46.418Z,10.97
2018-02-05T19:35:29.746Z,10.33
2018-02-05T19:40:13.105Z,11.63
2018-02-05T19:44:56.419Z,12.53
2018-02-05T19:49:39.754Z,9.20
2018-02-05T19:54:24.219Z,12.57
2018-02-05T19:59:07.558Z,14.33
2018-02-05T20:03:51.658Z,10.33
2018-02-05T20:08:35.803Z,10.87
2018-02-05T20:13:19.948Z,8.63
2018-02-05T20:18:03.311Z,8.57
2018-02-05T20:22:46.645Z,9.73
2018-02-05T20:27:29.978Z,13.00
2018-02-05T20:32:13.391Z,8.70
2018-02-05T20:36:56.741Z,12.03
2018-02-05T20:41:40.864Z,9.23
2018-02-05T20:46:24.181Z,10.20
2018-02-05T20:51:07.513Z,11.13
2018-02-05T20:55:51.086Z,12.07
2018-02-05T21:00:34.384Z,10.97
2018-02-05T21:05:17.728Z,11.53
2018-02-05T21:10:01.091Z,11.60
2018-02-05T21:14:44.445Z,10.40
2018-02-05T21:19:28.075Z,10.93
2018-02-05T21:24:11.383Z,11.33
2018-02-05T21:28:54.698Z,10.47
2018-02-05T21:33:38.055Z,9.17
2018-02-05T21:38:21.407Z,12.40
2018-02-05T21:43:04.737Z,12.17
2018-02-05T21:47:48.250Z,12.13
2018-02-05T21:52:31.851Z,12.17
2018-02-05T21:57:15.930Z,11.27
2018-02-05T22:01:59.295Z,13.77
2018-02-05T22:06:42.667Z,12.30
2018-02-05T22:11:26.753Z,12.77
2018-02-05T22:16:10.091Z,14.87
2018-02-05T22:20:53.757Z,12.20
2018-02-05T22:25:37.048Z,16.13
2018-02-05T22:30:20.489Z,13.17
2018-02-05T22:35:03.786Z,12.63
2018-02-05T22:39:47.142Z,14.50
2018-02-05T22:44:31.262Z,13.03
2018-02-05T22:49:14.628Z,14.23
2018-02-05T22:53:58.333Z,17.23
2018-02-05T22:58:41.641Z,17.77
2018-02-05T23:03:25.761Z,11.87
2018-02-05T23:08:09.083Z,12.67
2018-02-05T23:12:52.423Z,13.77
2018-02-05T23:17:36.520Z,14.53
2018-02-05T23:22:20.119Z,15.13
2018-02-05T23:27:03.418Z,12.63
2018-02-05T23:31:47.543Z,14.87
2018-02-05T23:36:30.900Z,13.27
2018-02-05T23:41:14.222Z,14.17
2018-02-05T23:45:57.578Z,16.80
2018-02-05T23:50:40.894Z,15.53
2018-02-05T23:55:24.212Z,18.07
